sensor_id;sensor_type;location;lat;lon;timestamp;pressure;altitude;pressure_sealevel;temperature;humidity
11621;BME280;5866;49.094;11.900;2022-09-16T00:02:22;95632.28;;;12.90;100.00
11621;BME280;5866;49.094;11.900;2022-09-16T00:04:50;95631.31;;;12.98;100.00
11621;BME280;5866;49.094;11.900;2022-09-16T00:07:21;95631.63;;;13.09;100.00
11621;BME280;5866;49.094;11.900;2022-09-16T00:09:48;95633.41;;;13.23;100.00
11621;BME280;5866;49.094;11.900;2022-09-16T00:12:16;95628.69;;;13.46;100.00
11621;BME280;5866;49.094;11.900;2022-09-16T00:14:43;95625.75;;;13.69;100.00
11621;BME280;5866;49.094;11.900;2022-09-16T00:17:11;95613.88;;;13.72;100.00
11621;BME280;5866;49.094;11.900;2022-09-16T00:19:38;95622.16;;;13.55;100.00
11621;BME280;5866;49.094;11.900;2022-09-16T00:22:06;95625.03;;;13.54;100.00
11621;BME280;5866;49.094;11.900;2022-09-16T00:24:35;95616.03;;;13.62;100.00
11621;BME280;5866;49.094;11.900;2022-09-16T00:27:02;95608.75;;;13.77;100.00
11621;BME280;5866;49.094;11.900;2022-09-16T00:29:30;95620.19;;;13.36;100.00
11621;BME280;5866;49.094;11.900;2022-09-16T00:31:58;95614.91;;;13.15;100.00
11621;BME280;5866;49.094;11.900;2022-09-16T00:34:25;95621.44;;;13.13;100.00
11621;BME280;5866;49.094;11.900;2022-09-16T00:36:52;95620.25;;;13.15;100.00
11621;BME280;5866;49.094;11.900;2022-09-16T00:39:20;95612.47;;;13.20;100.00
11621;BME280;5866;49.094;11.900;2022-09-16T00:41:49;95612.00;;;13.38;100.00
11621;BME280;5866;49.094;11.900;2022-09-16T00:44:52;95608.72;;;13.70;100.00
11621;BME280;5866;49.094;11.900;2022-09-16T00:47:23;95604.81;;;13.66;100.00
11621;BME280;5866;49.094;11.900;2022-09-16T00:49:52;95614.56;;;13.87;100.00
11621;BME280;5866;49.094;11.900;2022-09-16T00:52:26;95611.94;;;13.93;100.00
11621;BME280;5866;49.094;11.900;2022-09-16T00:54:54;95616.09;;;14.02;100.00
11621;BME280;5866;49.094;11.900;2022-09-16T00:57:23;95612.38;;;13.97;100.00
11621;BME280;5866;49.094;11.900;2022-09-16T00:59:53;95614.00;;;14.32;100.00
11621;BME280;5866;49.094;11.900;2022-09-16T01:02:22;95602.59;;;14.17;100.00
11621;BME280;5866;49.094;11.900;2022-09-16T01:04:53;95602.69;;;14.30;100.00
11621;BME280;5866;49.094;11.900;2022-09-16T01:07:26;95607.25;;;14.43;100.00
11621;BME280;5866;49.094;11.900;2022-09-16T01:09:56;95599.56;;;14.26;100.00
11621;BME280;5866;49.094;11.900;2022-09-16T01:12:27;95586.50;;;14.31;100.00
11621;BME280;5866;49.094;11.900;2022-09-16T01:14:55;95587.22;;;14.19;100.00
11621;BME280;5866;49.094;11.900;2022-09-16T01:17:39;95578.75;;;14.56;100.00
11621;BME280;5866;49.094;11.900;2022-09-16T01:20:39;95572.19;;;14.65;100.00
11621;BME280;5866;49.094;11.900;2022-09-16T01:29:35;95552.91;;;15.55;100.00
11621;BME280;5866;49.094;11.900;2022-09-16T01:32:09;95549.97;;;15.76;100.00
11621;BME280;5866;49.094;11.900;2022-09-16T01:34:46;95553.88;;;15.73;100.00
11621;BME280;5866;49.094;11.900;2022-09-16T01:37:24;95553.00;;;15.86;100.00
11621;BME280;5866;49.094;11.900;2022-09-16T01:39:59;95552.78;;;15.94;100.00
11621;BME280;5866;49.094;11.900;2022-09-16T01:42:37;95563.31;;;15.89;100.00
11621;BME280;5866;49.094;11.900;2022-09-16T01:45:14;95560.75;;;15.50;100.00
11621;BME280;5866;49.094;11.900;2022-09-16T01:47:49;95591.66;;;14.46;100.00
11621;BME280;5866;49.094;11.900;2022-09-16T01:50:23;95600.13;;;14.09;100.00
11621;BME280;5866;49.094;11.900;2022-09-16T01:52:58;95611.03;;;13.45;100.00
11621;BME280;5866;49.094;11.900;2022-09-16T01:55:29;95604.94;;;13.86;100.00
11621;BME280;5866;49.094;11.900;2022-09-16T01:58:02;95607.88;;;13.63;100.00
11621;BME280;5866;49.094;11.900;2022-09-16T02:00:32;95610.38;;;13.71;100.00
11621;BME280;5866;49.094;11.900;2022-09-16T02:03:04;95597.66;;;14.07;100.00
11621;BME280;5866;49.094;11.900;2022-09-16T02:05:36;95604.44;;;13.69;100.00
11621;BME280;5866;49.094;11.900;2022-09-16T02:08:09;95602.41;;;13.43;100.00
11621;BME280;5866;49.094;11.900;2022-09-16T02:10:40;95597.09;;;13.43;100.00
11621;BME280;5866;49.094;11.900;2022-09-16T02:13:15;95599.06;;;13.63;100.00
11621;BME280;5866;49.094;11.900;2022-09-16T02:15:47;95604.50;;;13.48;100.00
11621;BME280;5866;49.094;11.900;2022-09-16T02:18:21;95591.97;;;13.83;100.00
11621;BME280;5866;49.094;11.900;2022-09-16T02:20:52;95596.19;;;13.98;100.00
11621;BME280;5866;49.094;11.900;2022-09-16T02:23:24;95585.06;;;14.36;100.00
11621;BME280;5866;49.094;11.900;2022-09-16T02:25:53;95570.97;;;14.61;100.00
11621;BME280;5866;49.094;11.900;2022-09-16T02:28:24;95568.94;;;14.89;100.00
11621;BME280;5866;49.094;11.900;2022-09-16T02:30:54;95567.72;;;15.25;100.00
11621;BME280;5866;49.094;11.900;2022-09-16T02:33:29;95573.84;;;14.73;100.00
11621;BME280;5866;49.094;11.900;2022-09-16T02:36:01;95575.09;;;14.70;100.00
11621;BME280;5866;49.094;11.900;2022-09-16T02:38:33;95574.25;;;14.63;100.00
11621;BME280;5866;49.094;11.900;2022-09-16T02:41:04;95562.72;;;14.43;100.00
11621;BME280;5866;49.094;11.900;2022-09-16T02:43:32;95569.34;;;14.73;100.00
11621;BME280;5866;49.094;11.900;2022-09-16T02:46:06;95567.50;;;14.80;100.00
11621;BME280;5866;49.094;11.900;2022-09-16T02:48:46;95567.47;;;14.61;100.00
11621;BME280;5866;49.094;11.900;2022-09-16T02:51:23;95575.91;;;14.77;100.00
11621;BME280;5866;49.094;11.900;2022-09-16T02:53:58;95578.81;;;14.89;100.00
11621;BME280;5866;49.094;11.900;2022-09-16T02:56:29;95573.47;;;15.22;100.00
11621;BME280;5866;49.094;11.900;2022-09-16T02:58:59;95571.84;;;15.01;100.00
11621;BME280;5866;49.094;11.900;2022-09-16T03:01:29;95566.47;;;14.94;100.00
11621;BME280;5866;49.094;11.900;2022-09-16T03:04:00;95571.41;;;15.17;100.00
11621;BME280;5866;49.094;11.900;2022-09-16T03:06:29;95570.38;;;15.38;100.00
11621;BME280;5866;49.094;11.900;2022-09-16T03:09:03;95563.56;;;15.42;100.00
11621;BME280;5866;49.094;11.900;2022-09-16T03:12:00;95558.00;;;15.63;100.00
11621;BME280;5866;49.094;11.900;2022-09-16T03:14:42;95559.91;;;15.56;100.00
11621;BME280;5866;49.094;11.900;2022-09-16T03:17:25;95554.34;;;15.57;100.00
11621;BME280;5866;49.094;11.900;2022-09-16T03:20:03;95556.59;;;15.41;100.00
11621;BME280;5866;49.094;11.900;2022-09-16T03:22:44;95552.09;;;15.28;100.00
11621;BME280;5866;49.094;11.900;2022-09-16T03:25:22;95560.63;;;14.32;100.00
11621;BME280;5866;49.094;11.900;2022-09-16T03:27:56;95562.94;;;14.55;100.00
11621;BME280;5866;49.094;11.900;2022-09-16T03:30:29;95570.09;;;14.35;100.00
11621;BME280;5866;49.094;11.900;2022-09-16T03:33:01;95563.13;;;14.47;100.00
11621;BME280;5866;49.094;11.900;2022-09-16T03:35:37;95566.41;;;14.42;100.00
11621;BME280;5866;49.094;11.900;2022-09-16T03:38:07;95578.59;;;14.17;100.00
11621;BME280;5866;49.094;11.900;2022-09-16T03:40:36;95579.81;;;14.14;100.00
11621;BME280;5866;49.094;11.900;2022-09-16T03:43:09;95573.00;;;13.99;100.00
11621;BME280;5866;49.094;11.900;2022-09-16T03:45:37;95571.25;;;14.25;100.00
11621;BME280;5866;49.094;11.900;2022-09-16T03:48:08;95564.66;;;14.15;100.00
11621;BME280;5866;49.094;11.900;2022-09-16T03:50:37;95578.38;;;13.65;100.00
11621;BME280;5866;49.094;11.900;2022-09-16T03:53:05;95579.69;;;13.82;100.00
11621;BME280;5866;49.094;11.900;2022-09-16T03:55:32;95582.97;;;13.84;100.00
11621;BME280;5866;49.094;11.900;2022-09-16T03:58:00;95573.94;;;13.85;100.00
11621;BME280;5866;49.094;11.900;2022-09-16T04:00:27;95574.91;;;13.71;100.00
11621;BME280;5866;49.094;11.900;2022-09-16T04:02:55;95576.19;;;13.40;100.00
11621;BME280;5866;49.094;11.900;2022-09-16T04:05:22;95575.34;;;12.91;100.00
11621;BME280;5866;49.094;11.900;2022-09-16T04:07:51;95580.16;;;13.23;100.00
11621;BME280;5866;49.094;11.900;2022-09-16T04:10:19;95569.56;;;13.36;100.00
11621;BME280;5866;49.094;11.900;2022-09-16T04:12:46;95573.00;;;13.03;100.00
11621;BME280;5866;49.094;11.900;2022-09-16T04:15:14;95586.28;;;12.75;100.00
11621;BME280;5866;49.094;11.900;2022-09-16T04:17:41;95575.22;;;12.78;100.00
11621;BME280;5866;49.094;11.900;2022-09-16T04:20:09;95574.03;;;12.81;100.00
11621;BME280;5866;49.094;11.900;2022-09-16T04:22:36;95582.84;;;12.60;100.00
11621;BME280;5866;49.094;11.900;2022-09-16T04:25:06;95592.34;;;12.69;100.00
11621;BME280;5866;49.094;11.900;2022-09-16T04:27:35;95586.56;;;12.65;100.00
11621;BME280;5866;49.094;11.900;2022-09-16T04:30:03;95568.91;;;12.58;100.00
11621;BME280;5866;49.094;11.900;2022-09-16T04:32:30;95567.72;;;13.09;100.00
11621;BME280;5866;49.094;11.900;2022-09-16T04:34:58;95555.88;;;13.39;100.00
11621;BME280;5866;49.094;11.900;2022-09-16T04:37:28;95562.19;;;13.38;100.00
11621;BME280;5866;49.094;11.900;2022-09-16T04:39:56;95556.41;;;13.28;100.00
11621;BME280;5866;49.094;11.900;2022-09-16T04:42:31;95557.16;;;13.91;100.00
11621;BME280;5866;49.094;11.900;2022-09-16T04:44:58;95553.69;;;14.44;100.00
11621;BME280;5866;49.094;11.900;2022-09-16T04:47:26;95559.31;;;14.15;100.00
11621;BME280;5866;49.094;11.900;2022-09-16T04:49:54;95560.47;;;13.93;100.00
11621;BME280;5866;49.094;11.900;2022-09-16T04:52:22;95558.78;;;13.85;100.00
11621;BME280;5866;49.094;11.900;2022-09-16T04:54:49;95558.44;;;13.95;100.00
11621;BME280;5866;49.094;11.900;2022-09-16T04:57:16;95566.03;;;13.64;100.00
11621;BME280;5866;49.094;11.900;2022-09-16T04:59:45;95568.72;;;13.29;100.00
11621;BME280;5866;49.094;11.900;2022-09-16T05:02:13;95556.78;;;12.76;100.00
11621;BME280;5866;49.094;11.900;2022-09-16T05:04:40;95565.97;;;12.74;100.00
11621;BME280;5866;49.094;11.900;2022-09-16T05:07:08;95571.44;;;12.66;100.00
11621;BME280;5866;49.094;11.900;2022-09-16T05:09:35;95577.78;;;12.44;100.00
11621;BME280;5866;49.094;11.900;2022-09-16T05:12:03;95572.84;;;12.62;100.00
11621;BME280;5866;49.094;11.900;2022-09-16T05:14:30;95565.75;;;12.69;100.00
11621;BME280;5866;49.094;11.900;2022-09-16T05:16:59;95563.72;;;12.71;100.00
11621;BME280;5866;49.094;11.900;2022-09-16T05:19:27;95581.72;;;12.69;100.00
11621;BME280;5866;49.094;11.900;2022-09-16T05:21:54;95578.66;;;12.51;100.00
11621;BME280;5866;49.094;11.900;2022-09-16T05:24:22;95577.78;;;12.44;100.00
11621;BME280;5866;49.094;11.900;2022-09-16T05:26:49;95576.38;;;12.48;100.00
11621;BME280;5866;49.094;11.900;2022-09-16T05:29:17;95573.78;;;12.54;100.00
11621;BME280;5866;49.094;11.900;2022-09-16T05:31:44;95558.41;;;12.71;100.00
11621;BME280;5866;49.094;11.900;2022-09-16T05:34:16;95552.22;;;13.13;100.00
11621;BME280;5866;49.094;11.900;2022-09-16T05:36:44;95547.47;;;13.36;100.00
11621;BME280;5866;49.094;11.900;2022-09-16T05:39:13;95524.00;;;14.06;100.00
11621;BME280;5866;49.094;11.900;2022-09-16T05:41:52;95553.97;;;14.15;100.00
11621;BME280;5866;49.094;11.900;2022-09-16T05:44:19;95569.13;;;13.61;100.00
11621;BME280;5866;49.094;11.900;2022-09-16T05:46:47;95561.75;;;13.63;100.00
11621;BME280;5866;49.094;11.900;2022-09-16T05:49:16;95536.84;;;14.30;100.00
11621;BME280;5866;49.094;11.900;2022-09-16T05:51:46;95527.03;;;15.09;100.00
11621;BME280;5866;49.094;11.900;2022-09-16T05:54:14;95518.34;;;15.66;100.00
11621;BME280;5866;49.094;11.900;2022-09-16T05:56:44;95556.22;;;15.18;100.00
11621;BME280;5866;49.094;11.900;2022-09-16T05:59:12;95579.09;;;13.52;100.00
11621;BME280;5866;49.094;11.900;2022-09-16T06:01:41;95585.00;;;13.47;100.00
11621;BME280;5866;49.094;11.900;2022-09-16T06:04:10;95571.28;;;13.85;100.00
11621;BME280;5866;49.094;11.900;2022-09-16T06:06:40;95556.34;;;14.38;100.00
11621;BME280;5866;49.094;11.900;2022-09-16T06:09:10;95563.59;;;14.70;100.00
11621;BME280;5866;49.094;11.900;2022-09-16T06:11:40;95568.28;;;14.55;100.00
11621;BME280;5866;49.094;11.900;2022-09-16T06:14:08;95584.47;;;14.47;100.00
11621;BME280;5866;49.094;11.900;2022-09-16T06:16:36;95596.50;;;13.82;100.00
11621;BME280;5866;49.094;11.900;2022-09-16T06:19:06;95596.03;;;14.13;100.00
11621;BME280;5866;49.094;11.900;2022-09-16T06:21:36;95589.38;;;14.30;100.00
11621;BME280;5866;49.094;11.900;2022-09-16T06:24:05;95568.53;;;15.25;100.00
11621;BME280;5866;49.094;11.900;2022-09-16T06:26:35;95558.59;;;15.84;100.00
11621;BME280;5866;49.094;11.900;2022-09-16T06:29:03;95563.44;;;16.07;100.00
11621;BME280;5866;49.094;11.900;2022-09-16T06:31:32;95563.34;;;16.33;100.00
11621;BME280;5866;49.094;11.900;2022-09-16T06:34:00;95567.53;;;16.16;100.00
11621;BME280;5866;49.094;11.900;2022-09-16T06:36:30;95562.34;;;16.65;100.00
11621;BME280;5866;49.094;11.900;2022-09-16T06:38:58;95558.97;;;17.08;100.00
11621;BME280;5866;49.094;11.900;2022-09-16T06:41:27;95561.13;;;16.93;100.00
11621;BME280;5866;49.094;11.900;2022-09-16T06:43:54;95554.50;;;16.71;100.00
11621;BME280;5866;49.094;11.900;2022-09-16T06:46:23;95563.00;;;17.41;100.00
11621;BME280;5866;49.094;11.900;2022-09-16T06:48:54;95563.06;;;15.97;100.00
11621;BME280;5866;49.094;11.900;2022-09-16T06:51:26;95567.69;;;15.64;100.00
11621;BME280;5866;49.094;11.900;2022-09-16T06:53:58;95568.09;;;15.54;100.00
11621;BME280;5866;49.094;11.900;2022-09-16T06:56:27;95563.22;;;15.05;100.00
11621;BME280;5866;49.094;11.900;2022-09-16T06:58:55;95563.00;;;14.74;100.00
11621;BME280;5866;49.094;11.900;2022-09-16T07:01:24;95571.81;;;14.81;100.00
11621;BME280;5866;49.094;11.900;2022-09-16T07:03:53;95570.38;;;14.85;100.00
11621;BME280;5866;49.094;11.900;2022-09-16T07:06:23;95565.63;;;14.55;100.00
11621;BME280;5866;49.094;11.900;2022-09-16T07:09:11;95574.47;;;14.62;100.00
11621;BME280;5866;49.094;11.900;2022-09-16T07:11:40;95572.13;;;14.32;100.00
11621;BME280;5866;49.094;11.900;2022-09-16T07:14:08;95584.06;;;14.50;100.00
11621;BME280;5866;49.094;11.900;2022-09-16T07:16:35;95584.88;;;14.44;100.00
11621;BME280;5866;49.094;11.900;2022-09-16T07:19:03;95571.75;;;14.42;100.00
11621;BME280;5866;49.094;11.900;2022-09-16T07:21:31;95565.25;;;14.90;100.00
11621;BME280;5866;49.094;11.900;2022-09-16T07:24:00;95578.19;;;14.80;100.00
11621;BME280;5866;49.094;11.900;2022-09-16T07:26:29;95575.88;;;14.51;100.00
11621;BME280;5866;49.094;11.900;2022-09-16T07:29:00;95584.50;;;14.53;100.00
11621;BME280;5866;49.094;11.900;2022-09-16T07:31:35;95580.38;;;14.51;100.00
11621;BME280;5866;49.094;11.900;2022-09-16T07:34:04;95594.84;;;14.89;100.00
11621;BME280;5866;49.094;11.900;2022-09-16T07:36:35;95607.38;;;14.28;100.00
11621;BME280;5866;49.094;11.900;2022-09-16T07:39:03;95601.09;;;13.95;100.00
11621;BME280;5866;49.094;11.900;2022-09-16T07:41:33;95604.03;;;13.38;100.00
11621;BME280;5866;49.094;11.900;2022-09-16T07:44:03;95599.72;;;13.71;100.00
11621;BME280;5866;49.094;11.900;2022-09-16T07:46:33;95606.63;;;14.34;100.00
11621;BME280;5866;49.094;11.900;2022-09-16T07:49:03;95600.25;;;13.94;100.00
11621;BME280;5866;49.094;11.900;2022-09-16T07:51:31;95595.63;;;14.16;100.00
11621;BME280;5866;49.094;11.900;2022-09-16T07:54:00;95600.44;;;14.33;100.00
11621;BME280;5866;49.094;11.900;2022-09-16T07:56:31;95593.03;;;14.29;100.00
11621;BME280;5866;49.094;11.900;2022-09-16T07:59:00;95591.25;;;14.02;100.00
11621;BME280;5866;49.094;11.900;2022-09-16T08:01:29;95599.69;;;13.65;100.00
11621;BME280;5866;49.094;11.900;2022-09-16T08:03:58;95588.69;;;13.81;100.00
11621;BME280;5866;49.094;11.900;2022-09-16T08:06:29;95592.34;;;13.73;100.00
11621;BME280;5866;49.094;11.900;2022-09-16T08:08:58;95590.72;;;13.79;100.00
11621;BME280;5866;49.094;11.900;2022-09-16T08:11:40;95583.31;;;13.74;100.00
11621;BME280;5866;49.094;11.900;2022-09-16T08:14:08;95594.34;;;13.99;100.00
11621;BME280;5866;49.094;11.900;2022-09-16T08:16:37;95595.28;;;13.85;100.00
11621;BME280;5866;49.094;11.900;2022-09-16T08:19:04;95592.38;;;14.27;100.00
11621;BME280;5866;49.094;11.900;2022-09-16T08:21:32;95585.88;;;14.36;100.00
11621;BME280;5866;49.094;11.900;2022-09-16T08:23:59;95582.06;;;14.11;100.00
11621;BME280;5866;49.094;11.900;2022-09-16T08:26:27;95589.22;;;14.64;100.00
11621;BME280;5866;49.094;11.900;2022-09-16T08:28:54;95580.03;;;15.32;100.00
11621;BME280;5866;49.094;11.900;2022-09-16T08:31:34;95590.03;;;14.45;100.00
11621;BME280;5866;49.094;11.900;2022-09-16T08:34:04;95596.00;;;14.47;100.00
11621;BME280;5866;49.094;11.900;2022-09-16T08:36:32;95596.88;;;15.00;100.00
11621;BME280;5866;49.094;11.900;2022-09-16T08:38:59;95599.66;;;14.46;100.00
11621;BME280;5866;49.094;11.900;2022-09-16T08:41:46;95608.72;;;14.58;100.00
11621;BME280;5866;49.094;11.900;2022-09-16T08:44:25;95606.34;;;15.02;100.00
11621;BME280;5866;49.094;11.900;2022-09-16T08:46:59;95604.72;;;15.47;100.00
11621;BME280;5866;49.094;11.900;2022-09-16T08:49:32;95603.38;;;14.58;100.00
11621;BME280;5866;49.094;11.900;2022-09-16T08:52:07;95593.59;;;14.85;100.00
11621;BME280;5866;49.094;11.900;2022-09-16T08:54:39;95584.56;;;15.38;100.00
11621;BME280;5866;49.094;11.900;2022-09-16T08:57:11;95583.94;;;15.23;100.00
11621;BME280;5866;49.094;11.900;2022-09-16T08:59:43;95585.59;;;15.31;100.00
11621;BME280;5866;49.094;11.900;2022-09-16T09:02:22;95590.31;;;15.29;100.00
11621;BME280;5866;49.094;11.900;2022-09-16T09:04:53;95598.75;;;14.99;100.00
11621;BME280;5866;49.094;11.900;2022-09-16T09:07:27;95594.41;;;14.85;100.00
11621;BME280;5866;49.094;11.900;2022-09-16T09:10:04;95593.19;;;14.94;100.00
11621;BME280;5866;49.094;11.900;2022-09-16T09:12:38;95596.50;;;15.49;100.00
11621;BME280;5866;49.094;11.900;2022-09-16T09:15:20;95598.13;;;15.10;100.00
11621;BME280;5866;49.094;11.900;2022-09-16T09:18:03;95600.97;;;14.70;100.00
11621;BME280;5866;49.094;11.900;2022-09-16T09:20:49;95589.03;;;14.79;100.00
11621;BME280;5866;49.094;11.900;2022-09-16T09:23:33;95597.13;;;15.25;100.00
11621;BME280;5866;49.094;11.900;2022-09-16T09:26:10;95596.91;;;15.33;100.00
11621;BME280;5866;49.094;11.900;2022-09-16T09:28:57;95593.13;;;14.55;100.00
11621;BME280;5866;49.094;11.900;2022-09-16T09:31:37;95595.00;;;14.14;100.00
11621;BME280;5866;49.094;11.900;2022-09-16T09:34:18;95593.91;;;14.36;100.00
11621;BME280;5866;49.094;11.900;2022-09-16T09:37:01;95585.88;;;14.36;100.00
11621;BME280;5866;49.094;11.900;2022-09-16T09:39:44;95580.19;;;14.59;100.00
11621;BME280;5866;49.094;11.900;2022-09-16T09:42:17;95592.28;;;14.48;100.00
11621;BME280;5866;49.094;11.900;2022-09-16T09:44:50;95583.91;;;14.77;100.00
11621;BME280;5866;49.094;11.900;2022-09-16T09:47:24;95590.47;;;14.08;100.00
11621;BME280;5866;49.094;11.900;2022-09-16T09:49:55;95589.66;;;14.14;100.00
11621;BME280;5866;49.094;11.900;2022-09-16T09:52:29;95591.81;;;14.31;100.00
11621;BME280;5866;49.094;11.900;2022-09-16T09:55:12;95591.47;;;14.00;100.00
11621;BME280;5866;49.094;11.900;2022-09-16T09:57:54;95594.56;;;14.10;100.00
11621;BME280;5866;49.094;11.900;2022-09-16T10:00:23;95589.69;;;14.74;100.00
11621;BME280;5866;49.094;11.900;2022-09-16T10:02:50;95584.34;;;14.87;100.00
11621;BME280;5866;49.094;11.900;2022-09-16T10:05:21;95573.91;;;15.05;100.00
11621;BME280;5866;49.094;11.900;2022-09-16T10:07:54;95580.66;;;14.82;100.00
11621;BME280;5866;49.094;11.900;2022-09-16T10:10:23;95584.16;;;14.82;100.00
11621;BME280;5866;49.094;11.900;2022-09-16T10:12:51;95585.34;;;14.73;100.00
11621;BME280;5866;49.094;11.900;2022-09-16T10:15:21;95577.78;;;14.70;100.00
11621;BME280;5866;49.094;11.900;2022-09-16T10:17:50;95569.34;;;15.12;100.00
11621;BME280;5866;49.094;11.900;2022-09-16T10:20:26;95566.28;;;15.02;100.00
11621;BME280;5866;49.094;11.900;2022-09-16T10:22:57;95568.53;;;15.38;100.00
11621;BME280;5866;49.094;11.900;2022-09-16T10:25:26;95564.00;;;15.26;100.00
11621;BME280;5866;49.094;11.900;2022-09-16T10:27:56;95570.59;;;15.23;100.00
11621;BME280;5866;49.094;11.900;2022-09-16T10:30:27;95562.81;;;14.95;100.00
11621;BME280;5866;49.094;11.900;2022-09-16T10:32:59;95577.94;;;14.69;100.00
11621;BME280;5866;49.094;11.900;2022-09-16T10:35:29;95577.31;;;14.60;100.00
11621;BME280;5866;49.094;11.900;2022-09-16T10:38:01;95580.59;;;14.62;100.00
11621;BME280;5866;49.094;11.900;2022-09-16T10:40:30;95578.31;;;14.46;100.00
11621;BME280;5866;49.094;11.900;2022-09-16T10:43:01;95587.41;;;14.11;100.00
11621;BME280;5866;49.094;11.900;2022-09-16T10:45:32;95577.09;;;14.01;100.00
11621;BME280;5866;49.094;11.900;2022-09-16T10:48:04;95587.63;;;14.09;100.00
11621;BME280;5866;49.094;11.900;2022-09-16T10:50:33;95585.47;;;13.92;100.00
11621;BME280;5866;49.094;11.900;2022-09-16T10:53:02;95585.28;;;14.34;100.00
11621;BME280;5866;49.094;11.900;2022-09-16T10:55:31;95583.81;;;14.31;100.00
11621;BME280;5866;49.094;11.900;2022-09-16T10:58:08;95579.13;;;14.40;100.00
11621;BME280;5866;49.094;11.900;2022-09-16T11:00:43;95583.47;;;14.00;100.00
11621;BME280;5866;49.094;11.900;2022-09-16T11:06:32;95589.47;;;13.75;100.00
11621;BME280;5866;49.094;11.900;2022-09-16T11:09:12;95595.75;;;14.01;100.00
11621;BME280;5866;49.094;11.900;2022-09-16T11:11:54;95590.88;;;14.05;100.00
11621;BME280;5866;49.094;11.900;2022-09-16T11:14:33;95592.41;;;13.80;100.00
11621;BME280;5866;49.094;11.900;2022-09-16T11:17:18;95586.66;;;13.83;100.00
11621;BME280;5866;49.094;11.900;2022-09-16T11:19:58;95593.66;;;13.84;100.00
11621;BME280;5866;49.094;11.900;2022-09-16T11:22:36;95588.69;;;14.21;100.00
11621;BME280;5866;49.094;11.900;2022-09-16T11:25:24;95571.41;;;15.10;100.00
11621;BME280;5866;49.094;11.900;2022-09-16T11:27:58;95573.03;;;15.70;100.00
11621;BME280;5866;49.094;11.900;2022-09-16T11:30:29;95568.88;;;15.81;100.00
11621;BME280;5866;49.094;11.900;2022-09-16T11:33:12;95567.28;;;15.41;100.00
11621;BME280;5866;49.094;11.900;2022-09-16T11:36:03;95577.78;;;15.16;100.00
11621;BME280;5866;49.094;11.900;2022-09-16T11:38:38;95576.69;;;14.58;100.00
11621;BME280;5866;49.094;11.900;2022-09-16T11:41:17;95579.16;;;14.47;100.00
11621;BME280;5866;49.094;11.900;2022-09-16T11:44:09;95586.97;;;14.61;100.00
11621;BME280;5866;49.094;11.900;2022-09-16T11:46:49;95589.88;;;14.73;100.00
11621;BME280;5866;49.094;11.900;2022-09-16T11:49:30;95584.16;;;15.08;100.00
11621;BME280;5866;49.094;11.900;2022-09-16T11:52:07;95592.34;;;14.74;100.00
11621;BME280;5866;49.094;11.900;2022-09-16T11:54:49;95588.94;;;14.33;100.00
11621;BME280;5866;49.094;11.900;2022-09-16T11:57:27;95582.56;;;13.87;100.00
11621;BME280;5866;49.094;11.900;2022-09-16T11:59:59;95581.88;;;14.12;100.00
11621;BME280;5866;49.094;11.900;2022-09-16T12:02:34;95567.69;;;14.05;100.00
11621;BME280;5866;49.094;11.900;2022-09-16T12:05:11;95572.13;;;14.32;100.00
11621;BME280;5866;49.094;11.900;2022-09-16T12:07:43;95559.72;;;15.25;100.00
11621;BME280;5866;49.094;11.900;2022-09-16T12:10:17;95558.84;;;14.65;100.00
11621;BME280;5866;49.094;11.900;2022-09-16T12:12:51;95557.38;;;14.50;100.00
11621;BME280;5866;49.094;11.900;2022-09-16T12:15:23;95561.97;;;15.08;100.00
11621;BME280;5866;49.094;11.900;2022-09-16T12:17:55;95554.09;;;15.78;100.00
11621;BME280;5866;49.094;11.900;2022-09-16T12:20:27;95545.34;;;16.47;100.00
11621;BME280;5866;49.094;11.900;2022-09-16T12:23:11;95550.03;;;15.37;100.00
11621;BME280;5866;49.094;11.900;2022-09-16T12:25:43;95553.53;;;14.78;100.00
11621;BME280;5866;49.094;11.900;2022-09-16T12:28:19;95552.53;;;14.99;100.00
11621;BME280;5866;49.094;11.900;2022-09-16T12:30:58;95556.97;;;15.77;100.00
11621;BME280;5866;49.094;11.900;2022-09-16T12:33:31;95558.66;;;15.06;100.00
11621;BME280;5866;49.094;11.900;2022-09-16T12:36:04;95552.22;;;15.79;100.00
11621;BME280;5866;49.094;11.900;2022-09-16T12:38:33;95543.25;;;14.82;100.00
11621;BME280;5866;49.094;11.900;2022-09-16T12:41:13;95552.31;;;15.00;100.00
11621;BME280;5866;49.094;11.900;2022-09-16T12:44:05;95547.16;;;15.32;100.00
11621;BME280;5866;49.094;11.900;2022-09-16T12:50:11;95534.34;;;16.61;100.00
11621;BME280;5866;49.094;11.900;2022-09-16T12:52:59;95520.53;;;16.96;100.00
11621;BME280;5866;49.094;11.900;2022-09-16T12:55:53;95504.28;;;17.15;95.80
11621;BME280;5866;49.094;11.900;2022-09-16T12:58:43;95518.16;;;17.55;95.53
11621;BME280;5866;49.094;11.900;2022-09-16T13:01:19;95512.19;;;17.53;86.58
11621;BME280;5866;49.094;11.900;2022-09-16T13:03:52;95516.91;;;17.76;86.71
11621;BME280;5866;49.094;11.900;2022-09-16T13:06:24;95517.19;;;17.43;85.89
11621;BME280;5866;49.094;11.900;2022-09-16T13:08:54;95522.97;;;16.35;99.03
11621;BME280;5866;49.094;11.900;2022-09-16T13:11:23;95528.59;;;16.64;100.00
11621;BME280;5866;49.094;11.900;2022-09-16T13:14:22;95521.16;;;16.66;93.54
11621;BME280;5866;49.094;11.900;2022-09-16T13:16:54;95525.31;;;16.18;96.00
11621;BME280;5866;49.094;11.900;2022-09-16T13:19:38;95524.22;;;15.88;97.76
11621;BME280;5866;49.094;11.900;2022-09-16T13:22:19;95527.75;;;15.69;100.00
11621;BME280;5866;49.094;11.900;2022-09-16T13:24:52;95526.75;;;16.21;95.17
11621;BME280;5866;49.094;11.900;2022-09-16T13:27:24;95531.78;;;16.04;100.00
11621;BME280;5866;49.094;11.900;2022-09-16T13:30:09;95535.44;;;16.54;97.51
11621;BME280;5866;49.094;11.900;2022-09-16T13:32:42;95522.28;;;16.08;100.00